V. C. Bird International Airport

Airport
ICAO code: 
TAPA
IATA Code: 
ANU
Summary
ICAO Region: 
CARSAM
Location: 
St. John's, Antigua
Serving: 
St. John's
Elevation: 
62 ft
Coordinates: 
Aerial View: 
17° 8' 12" N, 61° 47' 34" W
Metar
Observation
TAPA 260400Z 08010KT 030V110 9999 SCT019 24/20 Q1016 NOSIG
Station
Vc Bird International Airport Antigua
Date/Time
2022-01-26 04:00:00
Wind direction
80°
Wind speed
10 kts
Lowest cloud amount
scattered clouds
Temperature
24°C
Dew point
20°C
Humidity
78%
QNH
1016 hPa
Weather condition
n/a

V.C. Bird International Airport is located on the island of Antigua, 8 km northeast of St. John's, the capital of Antigua and Barbuda.

Climatology

Tropical Monsoon climate (Köppen climate classification Am) - monthly mean temperatures above 18°C in every month of the year and features wet and dry seasons. A tropical monsoon climate typically features less pronounced dry seasons than a tropical savanna climate and see less variance in temperatures during the course of the year. The driest month nearly always occurs at or soon after the "winter" solstice.

Runways

Designator Length Width Surface Rops
7/25 2744 45 ASP Yes/Yes
Airport map: 
Aerial View: 

Accidents and Serious Incidents at or in the vicinity of TAPA

SKYbrary Partners:

Safety knowledge contributed by: